Aughton, United Kingdom

4:43 AM BST on October 23, 2014 (GMT +0100)
Bickerstaffe | Change Station
CLOSE
Current Station
Personal Weather Station
Location: Bickerstaffe,
Elevation: 167 ft
Nearby Weather Stations

Elev 167 ft 53.53 °N, 2.86 °W | Updated 16 seconds ago

Mostly Cloudy
Mostly Cloudy
52.5 °F
Feels Like 52.5 °F
N
4.5
Wind Variable Wind from NW
Gusts 10.7 mph

Today
High -- | Low -- °F
--% Chance of Precip.
Yesterday
High -- | Low -- °F
Precip. -- in
7:53 AM 5:57 PM
Waning Crescent, 1% visible
Pressure 30.04 in
Visibility 6.2 miles
Clouds Mostly Cloudy 3200 ft
Dew Point 44 °F
Humidity 74%
Rainfall 0.00 in
Snow Depth Not available.
UV 0 out of 12
Pollen Not available.
Air Quality Not available.
Flu Activity Not available.
METAR EGGP 230320Z 21005KT 9999 BKN032 12/09 Q1017

More Conditions Fewer Conditions

Pressure 30.04 in
Visibility 6.2 miles
Clouds Mostly Cloudy 3200 ft
Dew Point 44 °F
Humidity 74%
Rainfall 0.00 in
Snow Depth Not available.
UV 0 out of 12
Pollen Not available.
Air Quality Not available.
Flu Activity Not available.
METAR EGGP 230320Z 21005KT 9999 BKN032 12/09 Q1017

More Conditions Fewer Conditions

10-Day Weather Forecast

Almanac

Astronomy

Oct. 23, 2014 Rise Set
Actual Time 7:53 AM BST 5:57 PM BST
Civil Twilight 7:17 AM BST 6:33 PM BST
Nautical Twilight 6:36 AM BST 7:14 PM BST
Astronomical Twilight 5:56 AM BST 7:54 PM BST
Moon 7:14 AM BST 5:52 PM BST
Length of Visible Light 11h 16m
Length of Day
10h 04m
Tomorrow will be 4m 3s shorter.
Waning Crescent, 1% of the Moon is Illuminated
Oct 22
Waning Crescent
Oct 23
New
Oct 30
First Quarter
Nov 6
Full
Nov 14
Last Quarter

Yesterday's Extremes

Country Highs Country Lows

Community

WunderPhotos

Upload Photos

1,764,130 photos uploaded!

Nearby

Snow Depth

Not available.

Earthquake Activity

City Distance Mag. Time & Date
No recent earthquake activity has been reported nearby.
Minimum magnitude displayed is 2.5.

Coastal Water Temperatures

Place Temperature
No Stations Reporting

Nearby Weather Stations